DW9721 Weather Reports


Display with metric or nautical units.
time (UTC)temp
F
wind
direction
speed
MPH
gust
MPH
rain 1hr
in
rain 24hr
in
rain mn
in
humidity
%
barometer
mb
20230202202015 44 90 4.0 8.0 0.00 0.00 0.00 42 1026.5
20230202201015 43 113 1.0 7.0 0.00 0.00 0.00 48 1026.8
20230202200015 40 0.0 1.0 0.00 0.01 0.00 56 1026.2
20230202195015 38 0.0 2.0 0.00 0.01 0.00 59 1025.9
20230202194016 37 0.0 4.0 0.00 0.01 0.00 60 1026.1
20230202193015 37 0.0 2.0 0.00 0.01 0.00 61 1026.3
20230202192015 37 315 2.0 5.0 0.00 0.01 0.00 59 1026.4
20230202191015 37 0.0 1.0 0.00 0.01 0.00 59 1026.5
20230202190015 36 0.0 1.0 0.00 0.01 0.00 59 1026.2
20230202185015 37 0.0 1.0 0.00 0.01 0.00 57 1026.8
20230202184015 36 0.0 1.0 0.00 0.01 0.00 57 1026.6
20230202183035 36 23 1.0 5.0 0.00 0.01 0.00 57 1026.7
20230202182116 37 0.0 2.0 0.00 0.01 0.00 57 1026.8
20230202181015 36 0.0 1.0 0.00 0.01 0.00 55 1026.6
20230202180015 37 0.0 2.0 0.00 0.01 0.00 54 1026.7
20230202175015 36 0.0 0.0 0.00 0.01 0.00 53 1026.8
20230202174015 36 0.0 0.0 0.00 0.01 0.00 53 1026.8
20230202173015 37 0.0 1.0 0.00 0.01 0.00 51 1027.3
20230202172015 36 0.0 2.0 0.00 0.01 0.00 56 1026.8
20230202171015 32 0.0 0.0 0.00 0.01 0.00 63 1026.3
20230202170015 32 45 1.0 2.0 0.00 0.01 0.00 58 1026.4
20230202165015 31 0.0 2.0 0.00 0.01 0.00 62 1026.4
20230202164035 29 0.0 0.0 0.00 0.01 0.00 63 1026.0
20230202163015 28 0.0 1.0 0.00 0.01 0.00 64 1025.6
20230202162016 29 0.0 0.0 0.00 0.01 0.00 67 1025.7
20230202161015 28 0.0 2.0 0.00 0.01 0.00 63 1025.7
20230202160015 28 45 1.0 4.0 0.00 0.01 0.00 64 1025.7
20230202155015 27 0.0 0.0 0.00 0.01 0.00 67 1025.3
20230202154015 29 0.0 0.0 0.00 0.01 0.00 71 1025.7
20230202153015 25 0.0 1.0 0.00 0.01 0.00 72 1025.2
20230202152015 23 0.0 0.0 0.00 0.01 0.00 71 1024.7
20230202151015 24 0.0 1.0 0.00 0.01 0.00 71 1025.0
20230202150015 23 0.0 1.0 0.00 0.01 0.00 81 1024.5
20230202145055 18 0.0 1.0 0.00 0.01 0.00 85 1023.6
20230202144035 15 0.0 0.0 0.00 0.01 0.00 81 1023.4
20230202143015 15 0.0 0.0 0.00 0.01 0.00 84 1023.3
20230202142035 14 180 1.0 2.0 0.00 0.01 0.00 84 1022.6
20230202141035 14 0.0 1.0 0.00 0.01 0.00 83 1023.0
20230202140015 14 0.0 1.0 0.00 0.01 0.00 82 1022.8
20230202135015 15 0.0 1.0 0.00 0.01 0.00 82 1023.2
20230202134015 15 0.0 0.0 0.00 0.01 0.00 83 1023.2
20230202133015 15 0.0 0.0 0.00 0.01 0.00 83 1023.0
20230202132515 15 0.0 0.0 0.00 0.01 0.00 83 1023.1
20230202131515 15 0.0 1.0 0.00 0.01 0.00 84 1022.9
20230202130515 14 0.0 0.0 0.00 0.01 0.00 85 1023.0
20230202125515 14 0.0 1.0 0.00 0.01 0.00 85 1022.5
20230202124515 13 0.0 0.0 0.00 0.01 0.00 85 1023.0
20230202123515 13 0.0 1.0 0.00 0.01 0.00 87 1023.0
20230202122535 12 0.0 0.0 0.00 0.01 0.00 86 1022.4
20230202121515 12 0.0 0.0 0.00 0.01 0.00 86 1022.7
20230202120515 12 0.0 0.0 0.00 0.01 0.00 86 1022.8
20230202115515 12 0.0 0.0 0.00 0.01 0.00 86 1022.7
20230202114515 12 0.0 0.0 0.00 0.01 0.00 85 1023.0
20230202113515 12 0.0 0.0 0.00 0.01 0.00 85 1023.3
20230202112515 12 0.0 0.0 0.00 0.01 0.00 84 1023.6
20230202111515 12 0.0 0.0 0.00 0.01 0.00 84 1023.3
20230202110515 12 0.0 0.0 0.00 0.01 0.00 83 1023.5
20230202105515 13 0.0 0.0 0.00 0.01 0.00 81 1023.5
20230202104515 13 0.0 0.0 0.00 0.01 0.00 80 1023.2
20230202103515 14 0.0 0.0 0.00 0.01 0.00 79 1023.7
20230202102515 16 0.0 0.0 0.00 0.01 0.00 78 1023.4
20230202101515 17 0.0 0.0 0.00 0.01 0.00 80 1023.6
20230202100515 16 0.0 0.0 0.00 0.01 0.00 77 1023.2
20230202095515 17 0.0 0.0 0.00 0.01 0.00 78 1023.6
20230202094535 17 0.0 0.0 0.00 0.01 0.00 79 1023.5
20230202093515 17 0.0 1.0 0.00 0.01 0.00 80 1023.5
20230202092515 17 0.0 0.0 0.00 0.01 0.00 79 1023.5
20230202091515 17 0.0 0.0 0.00 0.01 0.00 79 1023.5
20230202090515 17 0.0 0.0 0.00 0.01 0.00 81 1023.4
20230202085535 17 0.0 0.0 0.00 0.01 0.00 81 1022.9
20230202084515 17 0.0 0.0 0.00 0.01 0.00 80 1022.8
20230202083515 16 0.0 0.0 0.00 0.01 0.00 81 1023.2
20230202082515 16 0.0 1.0 0.00 0.01 0.00 81 1023.2
20230202081515 16 0.0 0.0 0.00 0.01 0.00 78 1023.2
20230202080515 18 0.0 0.0 0.00 0.01 0.00 80 1023.3
20230202075515 17 0.0 0.0 0.00 0.01 0.00 80 1022.7
20230202074515 18 0.0 0.0 0.00 0.01 0.00 79 1023.2
20230202073515 18 0.0 0.0 0.00 0.01 0.00 81 1023.2
20230202072515 17 0.0 0.0 0.00 0.01 0.00 81 1022.8
20230202071515 17 0.0 0.0 0.00 0.01 0.00 81 1022.9
20230202070537 17 0.0 1.0 0.00 0.01 0.00 82 1022.4
20230202065516 18 0.0 2.0 0.00 0.01 0.01 82 1022.3
20230202064516 17 0.0 1.0 0.00 0.01 0.01 84 1021.9
20230202063516 16 0.0 0.0 0.00 0.01 0.01 83 1021.0
20230202062516 16 0.0 0.0 0.00 0.01 0.01 82 1020.9
20230202061516 16 0.0 1.0 0.00 0.01 0.01 83 1021.0
20230202060516 16 0.0 0.0 0.00 0.01 0.01 82 1020.8
20230202055536 16 0.0 0.0 0.00 0.01 0.01 80 1020.5
20230202054516 17 0.0 0.0 0.00 0.01 0.01 80 1020.4
20230202053516 17 0.0 0.0 0.00 0.01 0.01 81 1020.5
20230202052516 17 0.0 0.0 0.00 0.01 0.01 81 1020.0
20230202051536 17 0.0 0.0 0.00 0.01 0.01 81 1019.8
20230202050516 17 0.0 0.0 0.00 0.01 0.01 82 1019.6
20230202045516 17 0.0 0.0 0.00 0.01 0.01 80 1019.5
20230202044516 17 0.0 0.0 0.00 0.01 0.01 81 1019.6
20230202043516 17 0.0 0.0 0.00 0.01 0.01 80 1020.0
20230202042515 18 0.0 1.0 0.00 0.01 0.01 80 1019.8
20230202041546 18 0.0 0.0 0.00 0.01 0.01 81 1019.8
20230202040516 18 0.0 0.0 0.00 0.01 0.01 80 1020.0
20230202035516 18 0.0 0.0 0.00 0.01 0.01 80 1019.9
20230202034516 18 0.0 0.0 0.00 0.01 0.01 79 1019.8
20230202033536 19 0.0 0.0 0.00 0.01 0.01 77 1019.0
20230202032516 19 0.0 0.0 0.00 0.01 0.01 77 1018.5
20230202031516 20 0.0 0.0 0.00 0.01 0.01 76 1018.7
20230202030515 20 0.0 1.0 0.00 0.01 0.01 76 1018.7
20230202025516 20 0.0 0.0 0.00 0.01 0.01 75 1018.4
20230202024515 21 0.0 0.0 0.00 0.01 0.01 74 1018.4
20230202023516 21 0.0 0.0 0.00 0.01 0.01 74 1018.1
20230202022516 21 0.0 0.0 0.00 0.01 0.01 73 1017.7
20230202021535 22 0.0 0.0 0.00 0.01 0.01 72 1017.3
20230202020516 22 0.0 0.0 0.00 0.01 0.01 70 1017.4
20230202015536 23 0.0 0.0 0.00 0.01 0.01 71 1017.4
20230202014536 23 0.0 0.0 0.00 0.01 0.01 70 1017.8
20230202013535 24 0.0 1.0 0.00 0.01 0.01 70 1017.9
20230202012516 24 0.0 0.0 0.00 0.01 0.01 69 1018.2
20230202011516 24 0.0 1.0 0.00 0.01 0.01 69 1018.2
20230202010516 24 0.0 1.0 0.00 0.01 0.01 69 1018.7
20230202005515 24 0.0 0.0 0.00 0.01 0.01 68 1018.2
20230202004515 25 0.0 0.0 0.00 0.01 0.01 68 1018.1
20230202003515 25 0.0 0.0 0.00 0.01 0.01 67 1018.1
20230202002516 26 0.0 0.0 0.00 0.01 0.01 65 1018.3
20230202001516 27 0.0 0.0 0.00 0.01 0.01 62 1018.6
20230202000516 28 0.0 0.0 0.00 0.01 0.01 61 1018.2
20230201235515 29 0.0 0.0 0.00 0.01 0.01 59 1019.3
20230201234516 30 0.0 0.0 0.00 0.01 0.01 57 1019.0
20230201233516 33 0.0 1.0 0.00 0.01 0.01 54 1019.3
20230201232535 35 0.0 0.0 0.00 0.01 0.01 53 1019.2
20230201231535 35 0.0 2.0 0.00 0.01 0.01 53 1019.2
20230201230515 36 0.0 0.0 0.00 0.01 0.01 53 1018.9
20230201225516 35 0.0 0.0 0.00 0.02 0.01 54 1018.2
20230201224515 35 0.0 0.0 0.00 0.02 0.01 53 1018.0
20230201223516 36 0.0 0.0 0.00 0.02 0.01 51 1018.3
20230201222515 36 0.0 0.0 0.00 0.02 0.01 52 1018.5
20230201221516 36 0.0 0.0 0.00 0.02 0.01 52 1018.5
20230201220515 35 0.0 0.0 0.00 0.02 0.01 54 1018.5
20230201215516 35 0.0 0.0 0.00 0.02 0.01 54 1018.4
20230201214515 36 0.0 0.0 0.00 0.03 0.01 52 1018.3
20230201213515 36 0.0 0.0 0.00 0.03 0.01 52 1018.6
20230201212515 36 45 1.0 2.0 0.00 0.03 0.01 52 1018.3
20230201211516 35 0.0 2.0 0.00 0.03 0.01 52 1018.4
20230201210515 35 23 1.0 2.0 0.00 0.03 0.01 53 1018.5
20230201205516 35 23 2.0 4.0 0.01 0.03 0.01 54 1018.6
20230201204516 35 0.0 2.0 0.01 0.03 0.01 52 1018.6
20230201203516 36 0.0 2.0 0.01 0.03 0.01 50 1019.4
20230201202555 36 0.0 1.0 0.01 0.03 0.01 48 1019.4